createdAt,value
2017-10-09T00:01:22.949Z,18.40
2017-10-09T00:03:50.784Z,15.73
2017-10-09T00:06:18.604Z,10.03
2017-10-09T00:08:46.449Z,12.57
2017-10-09T00:11:14.255Z,10.33
2017-10-09T00:13:42.090Z,11.10
2017-10-09T00:16:09.925Z,12.33
2017-10-09T00:18:37.758Z,10.50
2017-10-09T00:21:05.578Z,14.67
2017-10-09T00:23:33.484Z,15.30
2017-10-09T00:26:01.304Z,14.87
2017-10-09T00:28:29.129Z,12.27
2017-10-09T00:30:56.986Z,11.20
2017-10-09T00:33:24.836Z,14.03
2017-10-09T00:35:52.657Z,10.60
2017-10-09T00:38:20.496Z,12.87
2017-10-09T00:40:48.341Z,10.70
2017-10-09T00:43:16.180Z,9.93
2017-10-09T00:45:44.010Z,11.80
2017-10-09T00:48:11.849Z,18.30
2017-10-09T00:50:39.668Z,16.23
2017-10-09T00:53:07.494Z,25.30
2017-10-09T00:55:35.330Z,11.10
2017-10-09T00:58:03.181Z,19.87
2017-10-09T01:00:30.998Z,17.43
2017-10-09T01:02:58.852Z,12.63
2017-10-09T01:05:26.681Z,20.60
2017-10-09T01:07:54.517Z,14.50
2017-10-09T01:10:22.364Z,13.60
2017-10-09T01:12:50.230Z,15.40
2017-10-09T01:15:18.058Z,19.00
2017-10-09T01:17:45.872Z,18.20
2017-10-09T01:20:13.697Z,11.80
2017-10-09T01:22:41.537Z,18.40
2017-10-09T01:25:09.368Z,14.83
2017-10-09T01:27:37.185Z,22.50
2017-10-09T01:30:05.009Z,17.37
2017-10-09T01:32:32.820Z,24.03
2017-10-09T01:35:00.652Z,16.60
2017-10-09T01:37:28.488Z,17.10
2017-10-09T01:39:56.328Z,11.37
2017-10-09T01:42:24.171Z,26.53
2017-10-09T01:44:51.996Z,24.53
2017-10-09T01:47:19.831Z,23.63
2017-10-09T01:49:47.646Z,15.20
2017-10-09T01:52:15.469Z,16.63
2017-10-09T01:54:43.296Z,18.03
2017-10-09T01:57:11.122Z,20.57
2017-10-09T01:59:38.941Z,20.13
2017-10-09T02:02:06.775Z,15.97
2017-10-09T02:04:34.604Z,16.60
2017-10-09T02:07:02.424Z,12.93
2017-10-09T02:09:30.245Z,19.90
2017-10-09T02:11:58.070Z,18.53
2017-10-09T02:14:25.893Z,53.30
2017-10-09T02:16:53.754Z,20.93
2017-10-09T02:19:21.589Z,14.97
2017-10-09T02:21:49.447Z,13.43
2017-10-09T02:24:17.297Z,14.10
2017-10-09T02:26:45.157Z,18.83
2017-10-09T02:29:13.013Z,21.60
2017-10-09T02:31:40.837Z,12.77
2017-10-09T02:34:08.665Z,15.73
2017-10-09T02:36:36.498Z,22.03
2017-10-09T02:39:04.325Z,17.00
2017-10-09T02:41:32.145Z,20.43
2017-10-09T02:43:59.978Z,28.73
2017-10-09T02:46:27.836Z,13.30
2017-10-09T02:48:55.657Z,18.33
2017-10-09T02:51:23.508Z,13.20
2017-10-09T02:53:51.329Z,22.53
2017-10-09T02:56:19.141Z,23.00
2017-10-09T02:58:46.948Z,19.20
2017-10-09T03:01:14.778Z,11.97
2017-10-09T03:03:42.614Z,13.93
2017-10-09T03:06:10.448Z,18.83
2017-10-09T03:08:38.262Z,18.63
2017-10-09T03:11:06.084Z,16.07
2017-10-09T03:13:33.925Z,14.47
2017-10-09T03:16:01.758Z,17.73
2017-10-09T03:18:29.607Z,16.97
2017-10-09T03:20:57.449Z,11.93
2017-10-09T03:23:41.037Z,12.20
2017-10-09T03:26:24.708Z,16.50
2017-10-09T03:28:54.461Z,16.47
2017-10-09T03:31:22.297Z,25.37
2017-10-09T03:33:50.120Z,17.30
2017-10-09T03:36:17.959Z,12.90
2017-10-09T03:38:45.842Z,25.43
2017-10-09T03:41:13.656Z,20.20
2017-10-09T03:43:41.488Z,17.43
2017-10-09T03:46:09.304Z,16.20
2017-10-09T03:48:37.116Z,17.73
2017-10-09T03:51:04.938Z,24.87
2017-10-09T03:53:32.769Z,17.10
2017-10-09T03:56:00.591Z,20.60
2017-10-09T03:58:28.448Z,16.43
2017-10-09T04:00:56.265Z,22.03
2017-10-09T04:03:24.116Z,18.37
2017-10-09T04:05:51.946Z,19.63
2017-10-09T04:08:19.745Z,21.57
2017-10-09T04:10:47.592Z,27.37
2017-10-09T04:13:15.399Z,15.00
2017-10-09T04:15:43.228Z,19.40
2017-10-09T04:18:11.045Z,17.70
2017-10-09T04:20:38.876Z,14.17
2017-10-09T04:23:06.685Z,15.60
2017-10-09T04:25:34.510Z,18.20
2017-10-09T04:28:02.333Z,26.50
2017-10-09T04:30:30.166Z,11.80
2017-10-09T04:32:57.976Z,25.13
2017-10-09T04:35:25.836Z,18.17
2017-10-09T04:37:53.651Z,10.73
2017-10-09T04:40:21.481Z,19.93
2017-10-09T04:42:49.306Z,16.97
2017-10-09T04:45:17.144Z,17.73
2017-10-09T04:47:44.964Z,20.83
2017-10-09T04:50:12.792Z,13.83
2017-10-09T04:52:40.652Z,20.20
2017-10-09T04:55:08.510Z,17.03
2017-10-09T04:57:36.317Z,15.03
2017-10-09T05:00:04.181Z,12.00
2017-10-09T05:02:32.011Z,17.97
2017-10-09T05:04:59.834Z,22.17
2017-10-09T05:07:27.647Z,18.17
2017-10-09T05:09:55.456Z,16.83
2017-10-09T05:12:23.281Z,18.73
2017-10-09T05:14:51.116Z,34.00
2017-10-09T05:17:18.980Z,26.13
2017-10-09T05:19:46.788Z,23.13
2017-10-09T05:22:14.601Z,22.60
2017-10-09T05:24:49.400Z,22.40
2017-10-09T05:27:17.207Z,26.50
2017-10-09T05:29:45.030Z,25.63
2017-10-09T05:32:12.855Z,28.77
2017-10-09T05:34:40.690Z,26.90
2017-10-09T05:37:08.516Z,32.30
2017-10-09T05:39:36.316Z,21.33
2017-10-09T05:42:04.133Z,36.60
2017-10-09T05:44:31.957Z,18.73
2017-10-09T05:46:59.764Z,26.37
2017-10-09T05:49:27.596Z,20.20
2017-10-09T05:51:55.449Z,33.50
2017-10-09T05:54:23.282Z,25.20
2017-10-09T05:56:51.092Z,22.10
2017-10-09T05:59:18.898Z,26.97
2017-10-09T06:01:46.725Z,19.73
2017-10-09T06:04:14.750Z,18.17
2017-10-09T06:06:42.585Z,18.97
2017-10-09T06:09:10.409Z,22.57
2017-10-09T06:11:38.213Z,18.57
2017-10-09T06:14:06.020Z,28.57
2017-10-09T06:16:33.837Z,18.73
2017-10-09T06:19:01.664Z,17.53
2017-10-09T06:21:29.481Z,19.03
2017-10-09T06:23:57.334Z,22.93
2017-10-09T06:26:25.145Z,19.90
2017-10-09T06:28:53.001Z,15.83
2017-10-09T06:31:20.830Z,15.10
2017-10-09T06:33:48.646Z,15.47
2017-10-09T06:36:16.456Z,13.77
2017-10-09T06:38:44.264Z,17.10
2017-10-09T06:41:12.073Z,18.20
2017-10-09T06:43:39.895Z,22.83
2017-10-09T06:46:07.689Z,13.90
2017-10-09T06:48:35.507Z,15.40
2017-10-09T06:51:03.364Z,16.60
2017-10-09T06:53:31.204Z,11.40
2017-10-09T06:55:59.029Z,21.63
2017-10-09T06:58:26.852Z,13.70
2017-10-09T07:00:54.688Z,28.70
2017-10-09T07:03:22.519Z,14.87
2017-10-09T07:05:50.340Z,20.30
2017-10-09T07:08:18.148Z,12.43
2017-10-09T07:10:45.986Z,16.40
2017-10-09T07:13:13.801Z,14.50
2017-10-09T07:15:41.624Z,12.03
2017-10-09T07:18:09.436Z,43.13
2017-10-09T07:20:37.264Z,43.60
2017-10-09T07:23:05.073Z,16.77
2017-10-09T07:25:32.884Z,22.27
2017-10-09T07:28:00.697Z,17.47
2017-10-09T07:30:28.512Z,10.80
2017-10-09T07:32:56.344Z,8.13
2017-10-09T07:35:24.164Z,9.90
2017-10-09T07:37:51.994Z,14.13
2017-10-09T07:40:19.806Z,14.70
2017-10-09T07:42:47.628Z,12.27
2017-10-09T07:45:15.433Z,9.87
2017-10-09T07:47:43.265Z,12.70
2017-10-09T07:50:11.088Z,18.37
2017-10-09T07:52:38.917Z,13.43
2017-10-09T07:55:06.728Z,11.80
2017-10-09T07:57:34.561Z,9.70
2017-10-09T08:00:02.394Z,9.00
2017-10-09T08:02:30.238Z,6.87
2017-10-09T08:04:58.032Z,11.63
2017-10-09T08:07:25.865Z,13.03
2017-10-09T08:09:53.709Z,17.00
2017-10-09T08:12:21.519Z,5.87
2017-10-09T08:14:49.351Z,10.27
2017-10-09T08:17:17.172Z,17.73
2017-10-09T08:19:44.995Z,7.40
2017-10-09T08:22:12.808Z,10.33
2017-10-09T08:24:40.676Z,9.20
2017-10-09T08:27:08.489Z,10.20
2017-10-09T08:29:36.320Z,9.37
2017-10-09T08:32:04.152Z,20.00
2017-10-09T08:34:31.977Z,12.83
2017-10-09T08:36:59.769Z,14.13
2017-10-09T08:39:27.592Z,13.77
2017-10-09T08:41:55.409Z,13.57
2017-10-09T08:44:23.240Z,12.53
2017-10-09T08:46:51.062Z,22.40
2017-10-09T08:49:18.889Z,11.13
2017-10-09T08:51:46.747Z,10.33
2017-10-09T08:54:14.556Z,10.10
2017-10-09T08:56:42.381Z,11.47
2017-10-09T08:59:10.217Z,7.67
2017-10-09T09:01:52.974Z,18.90
2017-10-09T09:04:20.813Z,9.97
2017-10-09T09:06:48.620Z,9.87
2017-10-09T09:09:16.432Z,8.43
2017-10-09T09:11:44.244Z,12.27
2017-10-09T09:14:12.061Z,11.67
2017-10-09T09:16:39.872Z,10.30
2017-10-09T09:19:07.713Z,6.73
2017-10-09T09:21:35.544Z,11.17
2017-10-09T09:24:03.346Z,11.67
2017-10-09T09:26:31.185Z,15.43
2017-10-09T09:28:58.996Z,10.73
2017-10-09T09:31:26.824Z,12.30
2017-10-09T09:33:54.641Z,17.27
2017-10-09T09:36:22.479Z,6.37
2017-10-09T09:38:50.321Z,7.23
2017-10-09T09:41:18.132Z,12.07
2017-10-09T09:43:45.950Z,11.90
2017-10-09T09:46:13.765Z,11.67
2017-10-09T09:48:41.613Z,11.97
2017-10-09T09:51:09.432Z,10.10
2017-10-09T09:53:37.237Z,9.23
2017-10-09T09:56:05.184Z,10.63
2017-10-09T09:58:33.009Z,13.73
2017-10-09T10:01:00.822Z,12.97
2017-10-09T10:03:28.706Z,18.00
2017-10-09T10:05:56.507Z,11.03
2017-10-09T10:08:24.345Z,14.60
2017-10-09T10:10:52.144Z,17.73
2017-10-09T10:13:19.977Z,8.90
2017-10-09T10:15:47.794Z,15.57
2017-10-09T10:18:15.612Z,20.73
2017-10-09T10:20:43.419Z,11.87
2017-10-09T10:23:11.285Z,12.13
2017-10-09T10:25:39.101Z,10.00
2017-10-09T10:28:06.930Z,10.23
2017-10-09T10:30:34.736Z,7.37
2017-10-09T10:33:02.572Z,10.13
2017-10-09T10:35:30.392Z,9.23
2017-10-09T10:37:58.190Z,19.63
2017-10-09T10:40:25.994Z,12.60
2017-10-09T10:42:53.809Z,12.30
2017-10-09T10:45:21.617Z,8.03
2017-10-09T10:47:49.448Z,8.23
2017-10-09T10:50:17.268Z,9.73
2017-10-09T10:52:45.056Z,4.97
2017-10-09T10:55:12.856Z,7.13
2017-10-09T10:57:40.659Z,8.67
2017-10-09T11:00:08.484Z,5.30
2017-10-09T11:02:36.296Z,12.57
2017-10-09T11:05:04.105Z,6.80
2017-10-09T11:07:31.913Z,3.13
2017-10-09T11:09:59.725Z,7.30
2017-10-09T11:12:27.593Z,3.37
2017-10-09T11:14:55.408Z,10.83
2017-10-09T11:17:23.210Z,7.53
2017-10-09T11:19:51.046Z,5.27
2017-10-09T11:22:18.861Z,3.87
2017-10-09T11:24:46.652Z,2.90
2017-10-09T11:27:14.457Z,10.90
2017-10-09T11:29:42.270Z,5.80
2017-10-09T11:32:10.090Z,3.60
2017-10-09T11:34:37.905Z,3.20
2017-10-09T11:37:05.713Z,7.77
2017-10-09T11:39:33.530Z,2.83
2017-10-09T11:42:01.339Z,12.33
2017-10-09T11:44:29.161Z,6.17
2017-10-09T11:46:56.965Z,7.90
2017-10-09T11:49:24.792Z,3.20
2017-10-09T11:51:52.588Z,4.20
2017-10-09T11:54:20.392Z,9.57
2017-10-09T11:56:48.199Z,5.50
2017-10-09T11:59:16.007Z,7.00
2017-10-09T12:01:43.833Z,10.03
2017-10-09T12:04:11.655Z,18.23
2017-10-09T12:06:39.480Z,14.43
2017-10-09T12:09:07.289Z,3.60
2017-10-09T12:11:35.101Z,7.77
2017-10-09T12:14:02.909Z,10.57
2017-10-09T12:16:30.794Z,6.50
2017-10-09T12:18:58.654Z,12.00
2017-10-09T12:21:26.468Z,3.80
2017-10-09T12:23:54.307Z,4.77
2017-10-09T12:26:22.145Z,5.60
2017-10-09T12:28:49.997Z,6.27
2017-10-09T12:31:17.812Z,7.40
2017-10-09T12:33:45.630Z,12.13
2017-10-09T12:36:13.472Z,3.03
2017-10-09T12:38:41.313Z,3.93
2017-10-09T12:41:09.140Z,3.43
2017-10-09T12:43:36.944Z,9.70
2017-10-09T12:46:04.749Z,3.67
2017-10-09T12:48:32.564Z,8.80
2017-10-09T12:51:00.369Z,6.37
2017-10-09T12:53:28.185Z,9.17
2017-10-09T12:55:55.989Z,6.03
2017-10-09T12:58:23.816Z,10.00
2017-10-09T13:00:51.613Z,11.50
2017-10-09T13:03:19.428Z,6.50
2017-10-09T13:05:47.261Z,5.50
2017-10-09T13:08:15.071Z,4.53
2017-10-09T13:10:42.881Z,2.47
2017-10-09T13:13:10.684Z,4.73
2017-10-09T13:15:38.497Z,6.13
2017-10-09T13:18:06.349Z,4.13
2017-10-09T13:20:34.141Z,6.40
2017-10-09T13:23:01.952Z,12.00
2017-10-09T13:25:29.762Z,6.90
2017-10-09T13:27:57.590Z,2.83
2017-10-09T13:30:25.396Z,10.13
2017-10-09T13:32:53.208Z,4.10
2017-10-09T13:35:21.092Z,7.70
2017-10-09T13:37:48.914Z,6.27
2017-10-09T13:40:16.731Z,3.60
2017-10-09T13:42:44.533Z,7.90
2017-10-09T13:45:12.357Z,1.83
2017-10-09T13:47:40.161Z,12.23
2017-10-09T13:50:07.989Z,5.40
2017-10-09T13:52:35.793Z,2.93
2017-10-09T13:55:03.592Z,4.20
2017-10-09T13:57:31.393Z,4.90
2017-10-09T14:00:06.179Z,9.27
2017-10-09T14:02:34.036Z,5.87
2017-10-09T14:05:01.894Z,4.47
2017-10-09T14:07:29.713Z,5.03
2017-10-09T14:09:57.521Z,2.80
2017-10-09T14:12:25.320Z,10.23
2017-10-09T14:14:53.133Z,6.23
2017-10-09T14:17:20.965Z,5.30
2017-10-09T14:19:48.816Z,4.40
2017-10-09T14:22:16.646Z,5.77
2017-10-09T14:24:44.433Z,13.20
2017-10-09T14:27:12.261Z,10.43
2017-10-09T14:29:40.072Z,3.73
2017-10-09T14:41:58.958Z,3.27
2017-10-09T14:44:26.785Z,2.43
2017-10-09T14:46:54.632Z,3.23
2017-10-09T14:49:22.453Z,3.17
2017-10-09T14:51:50.293Z,3.60
2017-10-09T14:54:18.128Z,2.93
2017-10-09T14:56:46.080Z,6.13
2017-10-09T14:59:13.893Z,8.67
2017-10-09T15:01:41.734Z,1.93
2017-10-09T15:04:09.557Z,1.87
2017-10-09T15:06:37.397Z,2.00
2017-10-09T15:09:05.209Z,3.30
2017-10-09T15:11:33.037Z,5.60
2017-10-09T15:14:00.847Z,3.17
2017-10-09T15:16:28.675Z,4.10
2017-10-09T15:18:56.496Z,4.93
2017-10-09T15:21:24.303Z,7.47
2017-10-09T15:23:52.140Z,9.70
2017-10-09T15:26:19.953Z,3.90
2017-10-09T15:28:47.799Z,4.07
2017-10-09T15:31:15.617Z,6.83
2017-10-09T15:33:43.451Z,3.40
2017-10-09T15:36:11.266Z,4.50
2017-10-09T15:38:39.106Z,2.90
2017-10-09T15:41:06.917Z,3.10
2017-10-09T15:43:34.728Z,6.13
2017-10-09T15:46:02.549Z,3.70
2017-10-09T15:48:30.371Z,7.10
2017-10-09T15:50:58.196Z,5.57
2017-10-09T15:53:26.012Z,10.30
2017-10-09T15:55:53.861Z,4.87
2017-10-09T15:58:21.668Z,8.40
2017-10-09T16:00:49.489Z,5.80
2017-10-09T16:03:17.313Z,6.53
2017-10-09T16:05:45.153Z,5.90
2017-10-09T16:08:12.962Z,10.17
2017-10-09T16:10:40.914Z,4.03
2017-10-09T16:13:08.738Z,7.93
2017-10-09T16:15:36.582Z,12.60
2017-10-09T16:18:04.481Z,5.60
2017-10-09T16:20:32.297Z,4.53
2017-10-09T16:23:00.128Z,7.07
2017-10-09T16:25:27.951Z,6.50
2017-10-09T16:27:55.740Z,7.53
2017-10-09T16:30:23.610Z,7.23
2017-10-09T16:32:51.417Z,11.00
2017-10-09T16:35:19.253Z,7.13
2017-10-09T16:37:47.050Z,6.57
2017-10-09T16:40:14.866Z,9.93
2017-10-09T16:42:42.692Z,9.20
2017-10-09T16:45:10.523Z,6.53
2017-10-09T16:47:38.356Z,12.10
2017-10-09T16:50:06.162Z,9.90
2017-10-09T16:52:34.001Z,8.83
2017-10-09T16:55:01.845Z,9.40
2017-10-09T16:57:29.669Z,11.43
2017-10-09T16:59:57.484Z,11.40
2017-10-09T17:02:25.302Z,16.23
2017-10-09T17:04:53.125Z,13.03
2017-10-09T17:07:20.957Z,11.40
2017-10-09T17:09:48.777Z,13.37
2017-10-09T17:12:16.594Z,19.20
2017-10-09T17:14:44.398Z,16.90
2017-10-09T17:17:12.220Z,15.30
2017-10-09T17:19:40.087Z,18.70
2017-10-09T17:22:07.914Z,20.43
2017-10-09T17:24:35.741Z,18.13
2017-10-09T17:27:03.646Z,17.97
2017-10-09T17:29:31.485Z,16.03
2017-10-09T17:31:59.375Z,21.60
2017-10-09T17:34:27.210Z,17.77
2017-10-09T17:36:55.121Z,16.20
2017-10-09T17:39:22.956Z,17.73
2017-10-09T17:41:50.776Z,21.63
2017-10-09T17:44:18.725Z,16.07
2017-10-09T17:46:46.552Z,20.03
2017-10-09T17:49:14.379Z,22.10
2017-10-09T17:51:42.196Z,19.23
2017-10-09T17:54:10.026Z,17.80
2017-10-09T17:56:37.849Z,22.93
2017-10-09T17:59:05.683Z,31.83
2017-10-09T18:01:33.516Z,17.73
2017-10-09T18:04:01.339Z,17.63
2017-10-09T18:06:29.161Z,21.40
2017-10-09T18:08:56.994Z,15.10
2017-10-09T18:11:24.831Z,17.10
2017-10-09T18:13:52.702Z,19.00
2017-10-09T18:16:20.630Z,22.57
2017-10-09T18:18:48.462Z,15.90
2017-10-09T18:21:16.279Z,19.03
2017-10-09T18:23:44.130Z,17.20
2017-10-09T18:26:11.954Z,21.07
2017-10-09T18:28:39.798Z,22.80
2017-10-09T18:31:07.592Z,18.20
2017-10-09T18:33:35.412Z,22.13
2017-10-09T18:36:03.218Z,15.77
2017-10-09T18:38:31.072Z,18.83
2017-10-09T18:40:58.893Z,50.47
2017-10-09T18:43:26.692Z,41.63
2017-10-09T18:45:54.510Z,30.40
2017-10-09T18:48:22.320Z,28.80
2017-10-09T18:50:50.142Z,19.03
2017-10-09T18:53:17.943Z,20.73
2017-10-09T18:55:45.744Z,17.77
2017-10-09T18:58:13.556Z,20.67
2017-10-09T19:00:41.493Z,23.50
2017-10-09T19:03:09.420Z,19.37
2017-10-09T19:05:37.261Z,18.20
2017-10-09T19:08:05.203Z,23.03
2017-10-09T19:10:33.377Z,25.20
2017-10-09T19:13:01.214Z,30.87
2017-10-09T19:15:29.044Z,27.80
2017-10-09T19:17:56.845Z,26.57
2017-10-09T19:20:24.678Z,28.07
2017-10-09T19:22:52.495Z,27.70
2017-10-09T19:25:20.316Z,25.83
2017-10-09T19:27:48.120Z,27.83
2017-10-09T19:30:16.070Z,31.63
2017-10-09T19:32:43.897Z,26.40
2017-10-09T19:35:11.732Z,27.80
2017-10-09T19:37:39.575Z,28.17
2017-10-09T19:40:07.382Z,28.60
2017-10-09T19:42:35.204Z,45.43
2017-10-09T19:45:03.038Z,31.50
2017-10-09T19:47:30.871Z,31.00
2017-10-09T19:49:58.686Z,32.43
2017-10-09T19:52:26.534Z,31.13
2017-10-09T19:54:54.381Z,32.83
2017-10-09T19:57:22.213Z,33.60
2017-10-09T19:59:50.016Z,37.87
2017-10-09T20:02:17.851Z,28.60
2017-10-09T20:04:45.654Z,29.93
2017-10-09T20:07:13.482Z,32.70
2017-10-09T20:09:41.310Z,25.20
2017-10-09T20:12:09.145Z,31.43
2017-10-09T20:14:36.993Z,26.73
2017-10-09T20:17:04.858Z,29.07
2017-10-09T20:19:32.697Z,36.93
2017-10-09T20:22:00.526Z,27.43
2017-10-09T20:24:28.365Z,23.30
2017-10-09T20:26:56.223Z,24.20
2017-10-09T20:29:24.049Z,21.23
2017-10-09T20:31:51.860Z,17.30
2017-10-09T20:34:19.692Z,17.40
2017-10-09T20:36:48.299Z,17.03
2017-10-09T20:39:16.127Z,16.80
2017-10-09T20:41:43.936Z,15.80
2017-10-09T20:44:11.757Z,16.77
2017-10-09T20:46:39.571Z,14.90
2017-10-09T20:49:07.418Z,16.93
2017-10-09T20:51:35.241Z,18.10
2017-10-09T20:54:03.052Z,19.00
2017-10-09T20:56:30.857Z,24.00
2017-10-09T20:58:58.681Z,20.33
2017-10-09T21:01:26.486Z,16.63
2017-10-09T21:03:54.315Z,22.40
2017-10-09T21:06:22.120Z,18.70
2017-10-09T21:08:49.950Z,21.77
2017-10-09T21:11:17.754Z,22.57
2017-10-09T21:13:45.597Z,24.63
2017-10-09T21:16:13.414Z,24.57
2017-10-09T21:18:41.317Z,24.93
2017-10-09T21:21:09.124Z,27.63
2017-10-09T21:23:36.935Z,27.80
2017-10-09T21:26:04.773Z,32.73
2017-10-09T21:28:32.592Z,29.30
2017-10-09T21:31:00.436Z,34.00
2017-10-09T21:33:28.264Z,32.23
2017-10-09T21:35:56.102Z,33.30
2017-10-09T21:38:23.916Z,34.13
2017-10-09T21:40:51.765Z,37.77
2017-10-09T21:43:19.636Z,35.80
2017-10-09T21:45:47.464Z,29.97
2017-10-09T21:48:15.289Z,35.87
2017-10-09T21:50:43.094Z,37.73
2017-10-09T21:53:10.923Z,32.90
2017-10-09T21:55:38.742Z,35.30
2017-10-09T21:58:06.588Z,40.40
2017-10-09T22:00:34.468Z,40.13
2017-10-09T22:03:02.296Z,39.40
2017-10-09T22:05:30.124Z,41.17
2017-10-09T22:07:57.924Z,33.63
2017-10-09T22:10:25.801Z,38.50
2017-10-09T22:12:53.601Z,39.20
2017-10-09T22:15:21.437Z,36.83
2017-10-09T22:17:49.245Z,40.50
2017-10-09T22:20:17.054Z,36.77
2017-10-09T22:22:44.862Z,40.37
2017-10-09T22:25:12.689Z,38.30
2017-10-09T22:27:40.500Z,33.07
2017-10-09T22:30:08.341Z,36.90
2017-10-09T22:32:36.161Z,39.60
2017-10-09T22:35:03.956Z,36.70
2017-10-09T22:37:34.055Z,35.73
2017-10-09T22:40:01.891Z,36.00
2017-10-09T22:42:29.743Z,35.63
2017-10-09T22:44:57.552Z,35.43
2017-10-09T22:47:25.376Z,38.47
2017-10-09T22:49:53.181Z,36.80
2017-10-09T22:52:20.998Z,43.03
2017-10-09T22:54:48.793Z,39.53
2017-10-09T22:57:16.596Z,42.03
2017-10-09T22:59:44.403Z,36.63
2017-10-09T23:02:12.241Z,37.67
2017-10-09T23:04:40.065Z,42.07
2017-10-09T23:07:07.877Z,34.53
2017-10-09T23:12:10.325Z,38.57
2017-10-09T23:14:38.158Z,39.47
2017-10-09T23:17:05.985Z,34.40
2017-10-09T23:19:33.785Z,35.60
2017-10-09T23:22:01.589Z,40.17
2017-10-09T23:24:29.420Z,37.17
2017-10-09T23:26:57.245Z,39.70
2017-10-09T23:29:25.065Z,35.17
2017-10-09T23:31:52.865Z,37.93
2017-10-09T23:34:20.681Z,42.07
2017-10-09T23:36:48.487Z,42.70
2017-10-09T23:39:16.305Z,41.30
2017-10-09T23:41:44.116Z,48.83
2017-10-09T23:44:11.947Z,47.23
2017-10-09T23:46:39.786Z,46.33
2017-10-09T23:49:07.602Z,54.60
2017-10-09T23:51:35.454Z,55.33
2017-10-09T23:54:03.281Z,49.30
2017-10-09T23:56:31.126Z,53.57
2017-10-09T23:58:58.975Z,56.70
